createdAt,value
2022-08-05T00:04:31.539Z,12.10
2022-08-05T00:09:37.197Z,10.88
2022-08-05T00:14:40.928Z,9.95
2022-08-05T00:20:02.039Z,10.98
2022-08-05T00:25:08.385Z,12.00
2022-08-05T00:30:16.405Z,12.05
2022-08-05T00:35:20.280Z,10.43
2022-08-05T00:40:26.980Z,10.43
2022-08-05T00:45:43.057Z,9.98
2022-08-05T00:50:50.158Z,9.80
2022-08-05T00:55:54.768Z,10.88
2022-08-05T01:00:58.372Z,11.85
2022-08-05T01:06:02.579Z,10.73
2022-08-05T01:11:22.248Z,11.13
2022-08-05T01:16:31.429Z,10.80
2022-08-05T01:21:56.528Z,10.63
2022-08-05T01:27:25.673Z,12.63
2022-08-05T01:32:32.777Z,10.65
2022-08-05T01:37:44.767Z,11.27
2022-08-05T01:42:51.827Z,10.75
2022-08-05T01:47:57.126Z,11.68
2022-08-05T01:53:04.087Z,10.95
2022-08-05T01:58:15.463Z,12.60
2022-08-05T02:03:31.795Z,11.60
2022-08-05T02:08:40.809Z,15.13
2022-08-05T02:14:12.471Z,10.55
2022-08-05T02:19:34.517Z,10.40
2022-08-05T02:24:41.655Z,11.75
2022-08-05T02:29:59.397Z,12.73
2022-08-05T02:35:14.192Z,11.40
2022-08-05T02:40:19.765Z,12.43
2022-08-05T02:45:26.264Z,13.02
2022-08-05T02:50:32.746Z,12.90
2022-08-05T02:55:54.009Z,11.65
2022-08-05T03:01:03.475Z,12.18
2022-08-05T03:06:56.735Z,12.30
2022-08-05T03:11:54.922Z,13.90
2022-08-05T03:16:56.365Z,16.90
2022-08-05T03:22:02.445Z,18.33
2022-08-05T03:27:08.666Z,15.82
2022-08-05T03:32:12.746Z,16.23
2022-08-05T03:37:17.896Z,14.00
2022-08-05T03:42:21.827Z,18.70
2022-08-05T03:47:35.411Z,16.50
2022-08-05T03:55:51.034Z,12.18
2022-08-05T03:58:18.664Z,12.57
2022-08-05T04:03:28.280Z,12.23
2022-08-05T04:08:36.390Z,12.07
2022-08-05T04:13:50.190Z,12.15
2022-08-05T04:18:57.816Z,12.45
2022-08-05T04:24:05.497Z,11.68
2022-08-05T04:29:10.026Z,12.45
2022-08-05T04:34:31.668Z,16.48
2022-08-05T04:39:35.823Z,23.15
2022-08-05T04:44:39.464Z,17.45
2022-08-05T04:50:02.918Z,12.35
2022-08-05T04:55:14.717Z,13.07
2022-08-05T05:00:19.506Z,12.10
2022-08-05T05:05:29.155Z,16.67
2022-08-05T05:10:38.302Z,13.75
2022-08-05T05:15:56.521Z,17.83
2022-08-05T05:21:05.562Z,14.13
2022-08-05T05:26:09.249Z,31.75
2022-08-05T05:31:14.206Z,11.25
2022-08-05T05:36:17.646Z,12.00
2022-08-05T05:41:23.507Z,9.55
2022-08-05T05:46:27.478Z,9.63
2022-08-05T05:51:30.946Z,8.73
2022-08-05T05:56:54.025Z,9.05
2022-08-05T06:01:58.181Z,11.73
2022-08-05T06:07:01.925Z,8.13
2022-08-05T06:12:05.866Z,7.22
2022-08-05T06:17:21.917Z,8.65
2022-08-05T06:22:34.042Z,7.68
2022-08-05T06:28:11.342Z,6.63
2022-08-05T06:33:10.865Z,6.80
2022-08-05T06:38:36.482Z,8.65
2022-08-05T06:43:58.298Z,9.63
2022-08-05T06:49:05.812Z,6.45
2022-08-05T06:54:18.949Z,7.60
2022-08-05T06:59:23.045Z,5.50
2022-08-05T07:04:27.374Z,9.80
2022-08-05T07:09:32.384Z,6.93
2022-08-05T07:14:59.185Z,8.05
2022-08-05T07:20:37.018Z,5.25
2022-08-05T07:25:56.526Z,7.30
2022-08-05T07:30:52.948Z,7.63
2022-08-05T07:36:05.614Z,7.70
2022-08-05T07:42:12.846Z,4.78
2022-08-05T07:46:56.006Z,7.13
2022-08-05T07:51:59.247Z,5.68
2022-08-05T07:57:18.021Z,7.00
2022-08-05T08:03:14.140Z,5.55
2022-08-05T08:08:04.605Z,6.43
2022-08-05T08:13:15.414Z,5.10
2022-08-05T08:18:29.845Z,3.58
2022-08-05T08:24:02.683Z,7.13
2022-08-05T08:28:59.747Z,5.03
2022-08-05T08:34:30.305Z,4.18
2022-08-05T08:39:37.780Z,4.60
2022-08-05T08:45:22.191Z,6.25
2022-08-05T08:50:30.890Z,5.05
2022-08-05T08:56:05.037Z,7.43
2022-08-05T09:00:59.381Z,4.47
2022-08-05T09:06:08.856Z,5.32
2022-08-05T09:11:15.525Z,3.22
2022-08-05T09:16:19.190Z,3.75
2022-08-05T09:22:23.110Z,6.63
2022-08-05T09:26:54.825Z,5.25
2022-08-05T09:32:40.407Z,3.75
2022-08-05T09:38:16.748Z,4.38
2022-08-05T09:42:53.929Z,3.97
2022-08-05T09:47:57.589Z,7.70
2022-08-05T09:53:01.229Z,5.82
2022-08-05T09:58:16.346Z,5.13
2022-08-05T10:03:21.219Z,6.00
2022-08-05T10:08:37.527Z,5.03
2022-08-05T10:13:45.741Z,3.35
2022-08-05T10:18:51.969Z,7.38
2022-08-05T10:23:59.543Z,4.72
2022-08-05T10:29:04.191Z,10.30
2022-08-05T10:34:10.079Z,5.20
2022-08-05T10:39:25.038Z,4.20
2022-08-05T10:44:47.035Z,4.45
2022-08-05T10:50:32.694Z,3.83
2022-08-05T10:56:14.632Z,7.75
2022-08-05T11:01:54.148Z,6.55
2022-08-05T11:07:01.470Z,4.57
2022-08-05T11:12:05.426Z,6.10
2022-08-05T11:17:58.000Z,4.20
2022-08-05T11:22:54.071Z,5.57
2022-08-05T11:28:17.125Z,4.45
2022-08-05T11:33:34.486Z,8.23
2022-08-05T11:38:53.238Z,8.95
2022-08-05T11:44:08.485Z,3.90
2022-08-05T11:49:16.973Z,4.15
2022-08-05T11:54:33.321Z,5.18
2022-08-05T11:59:49.416Z,10.32
2022-08-05T12:04:59.278Z,5.88
2022-08-05T12:10:09.625Z,6.40
2022-08-05T12:15:38.269Z,3.85
2022-08-05T12:20:41.924Z,5.05
2022-08-05T12:25:56.809Z,6.13
2022-08-05T12:31:02.446Z,5.82
2022-08-05T12:36:08.962Z,6.07
2022-08-05T12:41:14.690Z,3.72
2022-08-05T12:46:28.957Z,4.15
2022-08-05T12:52:14.493Z,8.40
2022-08-05T12:57:09.244Z,3.10
2022-08-05T13:02:17.144Z,4.47
2022-08-05T13:07:54.756Z,5.47
2022-08-05T13:12:58.388Z,5.07
2022-08-05T13:18:02.554Z,5.03
2022-08-05T13:23:07.257Z,5.43
2022-08-05T13:28:11.125Z,4.90
2022-08-05T13:34:21.584Z,7.28
2022-08-05T13:38:42.244Z,5.07
2022-08-05T13:43:54.694Z,5.30
2022-08-05T13:49:00.712Z,5.45
2022-08-05T13:54:11.955Z,6.18
2022-08-05T13:59:30.621Z,4.63
2022-08-05T14:04:57.235Z,5.28
2022-08-05T14:10:04.497Z,6.70
2022-08-05T14:16:05.045Z,4.47
2022-08-05T14:20:36.964Z,10.20
2022-08-05T14:25:45.377Z,8.25
2022-08-05T14:30:51.894Z,5.28
2022-08-05T14:35:56.805Z,9.68
2022-08-05T14:41:05.640Z,6.63
2022-08-05T14:46:10.674Z,4.57
2022-08-05T14:51:16.132Z,8.50
2022-08-05T14:56:22.704Z,6.88
2022-08-05T15:01:47.994Z,3.78
2022-08-05T15:06:50.013Z,5.90
2022-08-05T15:11:53.920Z,5.85
2022-08-05T15:16:57.448Z,7.30
2022-08-05T15:22:01.717Z,5.95
2022-08-05T15:27:09.022Z,9.10
2022-08-05T15:32:12.935Z,4.85
2022-08-05T15:38:08.702Z,6.15
2022-08-05T15:42:56.683Z,4.63
2022-08-05T15:48:04.483Z,8.77
2022-08-05T15:53:09.240Z,4.70
2022-08-05T15:58:16.447Z,7.93
2022-08-05T16:03:20.255Z,5.47
2022-08-05T16:08:24.356Z,5.38
2022-08-05T16:13:35.040Z,7.15
2022-08-05T16:18:51.795Z,7.18
2022-08-05T16:24:00.196Z,12.32
2022-08-05T16:29:06.362Z,9.85
2022-08-05T16:34:11.754Z,10.38
2022-08-05T16:39:15.962Z,6.50
2022-08-05T16:44:19.412Z,5.13
2022-08-05T16:49:24.995Z,7.65
2022-08-05T16:54:32.789Z,5.97
2022-08-05T17:00:04.419Z,6.05
2022-08-05T17:04:59.497Z,10.57
2022-08-05T17:10:03.936Z,12.18
2022-08-05T17:15:09.154Z,6.57
2022-08-05T17:20:14.723Z,23.90
2022-08-05T17:25:33.496Z,9.38
2022-08-05T17:30:51.859Z,12.23
2022-08-05T17:36:07.998Z,9.02
2022-08-05T17:42:18.520Z,8.85
2022-08-05T17:46:37.126Z,14.93
2022-08-05T17:51:41.235Z,12.65
2022-08-05T17:56:45.131Z,14.25
2022-08-05T18:01:52.785Z,11.23
2022-08-05T18:06:56.405Z,16.92
2022-08-05T18:12:05.497Z,18.10
2022-08-05T18:17:59.194Z,9.18
2022-08-05T18:22:36.403Z,16.13
2022-08-05T18:27:56.391Z,12.10
2022-08-05T18:33:01.293Z,19.20
2022-08-05T18:38:05.141Z,27.20
2022-08-05T18:43:08.904Z,10.98
2022-08-05T18:48:31.630Z,10.88
2022-08-05T18:53:43.050Z,13.98
2022-08-05T18:58:50.924Z,13.13
2022-08-05T19:03:58.669Z,19.08
2022-08-05T19:09:02.503Z,15.07
2022-08-05T19:14:37.717Z,12.27
2022-08-05T19:19:31.624Z,12.15
2022-08-05T19:24:35.872Z,11.65
2022-08-05T19:29:40.341Z,13.77
2022-08-05T19:34:54.606Z,9.80
2022-08-05T19:40:00.579Z,10.48
2022-08-05T19:45:06.682Z,8.40
2022-08-05T19:50:12.154Z,10.57
2022-08-05T19:56:14.577Z,10.35
2022-08-05T20:00:39.911Z,14.25
2022-08-05T20:05:51.390Z,9.25
2022-08-05T20:10:56.389Z,10.07
2022-08-05T20:16:01.594Z,10.85
2022-08-05T20:21:10.379Z,10.50
2022-08-05T20:26:20.700Z,11.52
2022-08-05T20:31:43.863Z,11.27
2022-08-05T20:36:58.078Z,10.90
2022-08-05T20:55:56.841Z,11.13
2022-08-05T21:06:57.082Z,11.27
2022-08-05T21:19:47.845Z,11.02
2022-08-05T21:24:57.995Z,13.30
2022-08-05T21:30:06.531Z,13.25
2022-08-05T21:35:18.406Z,10.95
2022-08-05T21:40:34.113Z,11.20
2022-08-05T21:45:56.845Z,12.52
2022-08-05T21:51:02.258Z,11.90
2022-08-05T21:56:16.950Z,12.85
2022-08-05T22:01:26.019Z,11.10
2022-08-05T22:06:35.189Z,12.88
2022-08-05T22:11:46.856Z,14.68
2022-08-05T22:17:03.393Z,12.20
2022-08-05T22:22:54.364Z,15.32
2022-08-05T22:28:10.656Z,13.07
2022-08-05T22:33:17.818Z,12.85
2022-08-05T22:38:43.677Z,12.43
2022-08-05T22:43:56.633Z,13.13
2022-08-05T22:54:39.486Z,13.40
2022-08-05T23:00:42.339Z,13.25
2022-08-05T23:05:46.906Z,11.48
2022-08-05T23:10:56.153Z,13.55
2022-08-05T23:29:35.651Z,11.57
2022-08-05T23:34:40.500Z,11.05
2022-08-05T23:39:54.530Z,12.35
2022-08-05T23:44:58.210Z,10.88
2022-08-05T23:50:03.009Z,12.13
2022-08-05T23:55:13.119Z,11.18
